createdAt,value
2023-02-23T00:02:41.454Z,7.96
2023-02-23T00:06:04.032Z,7.94
2023-02-23T00:09:35.375Z,7.90
2023-02-23T00:13:05.218Z,7.87
2023-02-23T00:16:29.610Z,7.86
2023-02-23T00:19:51.457Z,7.84
2023-02-23T00:23:17.252Z,7.84
2023-02-23T00:26:40.095Z,7.83
2023-02-23T00:30:03.686Z,7.81
2023-02-23T00:33:25.486Z,7.80
2023-02-23T00:36:55.033Z,7.80
2023-02-23T00:40:18.425Z,7.77
2023-02-23T00:43:48.032Z,7.75
2023-02-23T00:47:09.680Z,7.72
2023-02-23T00:50:34.925Z,7.68
2023-02-23T00:54:03.722Z,7.65
2023-02-23T00:57:33.782Z,7.62
2023-02-23T01:00:55.657Z,7.60
2023-02-23T01:04:19.574Z,7.58
2023-02-23T01:07:49.270Z,7.56
2023-02-23T01:11:17.341Z,7.55
2023-02-23T01:14:39.410Z,7.52
2023-02-23T01:18:01.237Z,7.50
2023-02-23T01:21:26.058Z,7.48
2023-02-23T01:24:47.852Z,7.46
2023-02-23T01:28:11.187Z,7.42
2023-02-23T01:31:33.115Z,7.40
2023-02-23T01:34:54.949Z,7.38
2023-02-23T01:38:16.733Z,7.37
2023-02-23T01:41:39.257Z,7.34
2023-02-23T01:45:37.829Z,7.32
2023-02-23T01:49:00.242Z,7.30
2023-02-23T01:52:22.017Z,7.28
2023-02-23T01:55:44.326Z,7.25
2023-02-23T01:59:07.519Z,7.23
2023-02-23T02:02:33.470Z,7.22
2023-02-23T02:05:56.902Z,7.20
2023-02-23T02:09:20.562Z,7.18
2023-02-23T02:12:58.961Z,7.15
2023-02-23T02:16:43.615Z,7.13
2023-02-23T02:20:32.900Z,7.11
2023-02-23T02:24:13.661Z,7.09
2023-02-23T02:27:50.465Z,7.07
2023-02-23T02:31:21.062Z,7.04
2023-02-23T02:34:49.501Z,7.03
2023-02-23T02:38:35.445Z,7.02
2023-02-23T02:42:08.929Z,7.02
2023-02-23T02:45:44.957Z,7.01
2023-02-23T02:49:24.242Z,7.00
2023-02-23T02:52:56.352Z,7.00
2023-02-23T02:56:20.317Z,6.99
2023-02-23T03:00:04.476Z,6.99
2023-02-23T03:03:52.628Z,6.99
2023-02-23T03:07:44.442Z,7.00
2023-02-23T03:11:33.370Z,7.00
2023-02-23T03:15:41.852Z,6.99
2023-02-23T03:19:33.836Z,6.99
2023-02-23T03:23:19.377Z,6.99
2023-02-23T03:27:04.744Z,6.98
2023-02-23T03:31:25.788Z,6.97
2023-02-23T03:35:12.472Z,6.96
2023-02-23T03:39:17.553Z,6.95
2023-02-23T03:43:01.083Z,6.95
2023-02-23T03:46:43.087Z,6.95
2023-02-23T03:50:42.177Z,6.95
2023-02-23T03:54:29.841Z,6.98
2023-02-23T03:58:15.192Z,6.99
2023-02-23T04:01:57.662Z,6.99
2023-02-23T04:05:39.382Z,7.00
2023-02-23T04:09:22.326Z,7.01
2023-02-23T04:13:13.869Z,7.03
2023-02-23T04:16:36.035Z,7.04
2023-02-23T04:20:00.368Z,7.05
2023-02-23T04:23:25.834Z,7.05
2023-02-23T04:26:47.717Z,7.05
2023-02-23T04:30:11.968Z,7.06
2023-02-23T04:33:33.826Z,7.07
2023-02-23T04:37:02.712Z,7.07
2023-02-23T04:40:31.581Z,7.08
2023-02-23T04:43:59.162Z,7.08
2023-02-23T04:47:21.063Z,7.08
2023-02-23T04:50:42.889Z,7.09
2023-02-23T04:54:12.380Z,7.10
2023-02-23T04:57:35.349Z,7.11
2023-02-23T05:01:09.934Z,7.13
2023-02-23T05:04:35.395Z,7.12
2023-02-23T05:08:06.131Z,7.13
2023-02-23T05:11:27.961Z,7.13
2023-02-23T05:14:49.794Z,7.12
2023-02-23T05:18:13.159Z,7.11
2023-02-23T05:21:39.091Z,7.12
2023-02-23T05:25:08.848Z,7.11
2023-02-23T05:28:31.151Z,7.10
2023-02-23T05:31:56.055Z,7.09
2023-02-23T05:35:18.098Z,7.09
2023-02-23T05:38:40.973Z,7.10
2023-02-23T05:42:04.076Z,7.10
2023-02-23T05:45:26.114Z,7.10
2023-02-23T05:50:54.411Z,7.13
2023-02-23T05:54:16.253Z,7.13
2023-02-23T05:57:43.681Z,7.14
2023-02-23T06:01:05.520Z,7.15
2023-02-23T06:04:29.455Z,7.17
2023-02-23T06:07:52.445Z,7.20
2023-02-23T06:11:44.653Z,7.22
2023-02-23T06:15:11.825Z,7.26
2023-02-23T06:18:33.840Z,7.31
2023-02-23T06:21:55.668Z,7.37
2023-02-23T06:25:19.895Z,7.42
2023-02-23T06:28:44.502Z,7.48
2023-02-23T06:32:06.469Z,7.55
2023-02-23T06:35:40.717Z,7.62
2023-02-23T06:39:09.165Z,7.69
2023-02-23T06:42:31.129Z,7.77
2023-02-23T06:45:54.356Z,7.88
2023-02-23T06:49:16.723Z,7.99
2023-02-23T06:52:43.987Z,8.15
2023-02-23T06:56:06.368Z,8.30
2023-02-23T06:59:28.187Z,8.41
2023-02-23T07:02:59.012Z,8.50
2023-02-23T07:06:21.035Z,8.59
2023-02-23T07:09:43.039Z,8.68
2023-02-23T07:13:04.846Z,8.80
2023-02-23T07:16:30.272Z,8.91
2023-02-23T07:19:53.786Z,9.02
2023-02-23T07:23:19.520Z,9.14
2023-02-23T07:26:43.803Z,9.29
2023-02-23T07:30:06.304Z,9.43
2023-02-23T07:33:28.075Z,9.57
2023-02-23T07:36:56.406Z,9.72
2023-02-23T07:40:19.462Z,9.85
2023-02-23T07:43:42.468Z,10.00
2023-02-23T07:47:04.321Z,10.13
2023-02-23T07:50:26.998Z,10.29
2023-02-23T07:53:49.593Z,10.53
2023-02-23T07:57:14.300Z,10.74
2023-02-23T08:00:38.981Z,10.96
2023-02-23T08:04:00.969Z,11.28
2023-02-23T08:07:22.987Z,11.78
2023-02-23T08:10:44.813Z,12.61
2023-02-23T08:14:06.710Z,13.76
2023-02-23T08:17:29.294Z,15.24
2023-02-23T08:20:51.420Z,16.29
2023-02-23T08:24:16.206Z,16.93
2023-02-23T08:27:38.986Z,17.30
2023-02-23T08:31:00.925Z,17.42
2023-02-23T08:34:23.436Z,17.47
2023-02-23T08:37:50.820Z,17.64
2023-02-23T08:41:12.772Z,17.86
2023-02-23T08:44:34.683Z,18.22
2023-02-23T08:47:56.773Z,18.85
2023-02-23T08:51:19.416Z,19.52
2023-02-23T08:54:41.556Z,20.01
2023-02-23T08:58:03.413Z,20.18
2023-02-23T09:01:25.619Z,20.28
2023-02-23T09:04:47.785Z,20.54
2023-02-23T09:08:09.831Z,21.09
2023-02-23T09:11:31.731Z,21.90
2023-02-23T09:14:53.933Z,22.95
2023-02-23T09:18:17.483Z,24.04
2023-02-23T09:21:39.317Z,25.06
2023-02-23T09:25:01.242Z,25.87
2023-02-23T09:28:23.090Z,26.56
2023-02-23T09:31:45.106Z,26.95
2023-02-23T09:35:07.331Z,27.04
2023-02-23T09:38:36.529Z,26.92
2023-02-23T09:42:19.687Z,26.65
2023-02-23T09:45:42.941Z,26.58
2023-02-23T09:49:12.408Z,26.68
2023-02-23T09:52:41.623Z,26.70
2023-02-23T09:56:19.036Z,26.74
2023-02-23T09:59:40.939Z,26.83
2023-02-23T10:03:08.807Z,27.09
2023-02-23T10:06:30.676Z,27.45
2023-02-23T10:10:04.383Z,28.04
2023-02-23T10:13:54.201Z,28.57
2023-02-23T10:17:30.398Z,29.03
2023-02-23T10:21:01.294Z,29.35
2023-02-23T10:24:37.092Z,29.59
2023-02-23T10:28:00.136Z,29.80
2023-02-23T10:31:41.386Z,30.00
2023-02-23T10:35:11.214Z,30.12
2023-02-23T10:38:32.964Z,30.31
2023-02-23T10:41:55.368Z,30.51
2023-02-23T10:45:23.150Z,30.67
2023-02-23T10:48:45.547Z,30.82
2023-02-23T10:52:13.700Z,30.89
2023-02-23T10:55:36.046Z,30.81
2023-02-23T10:58:58.915Z,30.71
2023-02-23T11:02:24.608Z,30.63
2023-02-23T11:05:50.629Z,30.48
2023-02-23T11:09:44.548Z,30.24
2023-02-23T11:13:23.272Z,29.88
2023-02-23T11:16:45.229Z,29.45
2023-02-23T11:20:37.107Z,29.01
2023-02-23T11:24:01.860Z,28.52
2023-02-23T11:27:26.115Z,28.01
2023-02-23T11:30:49.233Z,27.35
2023-02-23T11:34:21.961Z,26.76
2023-02-23T11:37:43.861Z,26.36
2023-02-23T11:41:24.291Z,26.07
2023-02-23T11:45:03.283Z,25.82
2023-02-23T11:48:32.611Z,25.62
2023-02-23T11:51:54.873Z,25.42
2023-02-23T11:55:19.765Z,25.24
2023-02-23T11:58:47.308Z,25.05
2023-02-23T12:02:30.202Z,24.70
2023-02-23T12:05:57.867Z,22.83
2023-02-23T12:09:30.804Z,19.22
2023-02-23T12:12:58.783Z,17.12
2023-02-23T12:16:28.721Z,15.75
2023-02-23T12:20:11.262Z,15.15
2023-02-23T12:23:34.961Z,14.89
2023-02-23T12:27:06.339Z,14.57
2023-02-23T12:30:37.322Z,14.04
2023-02-23T12:34:07.666Z,13.31
2023-02-23T12:37:37.189Z,13.07
2023-02-23T12:41:08.019Z,12.87
2023-02-23T12:44:40.666Z,12.87
2023-02-23T12:48:40.702Z,13.12
2023-02-23T12:52:13.737Z,14.09
2023-02-23T12:56:14.460Z,14.84
2023-02-23T12:59:52.176Z,15.53
2023-02-23T13:03:36.730Z,16.07
2023-02-23T13:07:38.373Z,16.49
2023-02-23T13:11:09.148Z,16.80
2023-02-23T13:14:49.066Z,16.98
2023-02-23T13:18:15.784Z,17.12
2023-02-23T13:21:43.573Z,17.24
2023-02-23T13:25:20.427Z,17.33
2023-02-23T13:28:56.709Z,17.39
2023-02-23T13:32:21.993Z,17.43
2023-02-23T13:35:44.225Z,17.46
2023-02-23T13:39:30.515Z,17.52
2023-02-23T13:42:59.052Z,17.59
2023-02-23T13:46:48.449Z,17.67
2023-02-23T13:50:22.598Z,17.76
2023-02-23T13:53:47.948Z,17.76
2023-02-23T13:57:18.313Z,17.72
2023-02-23T14:00:40.134Z,17.69
2023-02-23T14:04:12.827Z,17.65
2023-02-23T14:07:40.220Z,17.60
2023-02-23T14:11:02.943Z,17.54
2023-02-23T14:14:30.950Z,17.51
2023-02-23T14:18:00.946Z,17.49
2023-02-23T14:21:29.412Z,17.46
2023-02-23T14:25:29.025Z,17.41
2023-02-23T14:29:29.649Z,17.29
2023-02-23T14:32:55.248Z,17.16
2023-02-23T14:36:26.856Z,17.04
2023-02-23T14:39:50.768Z,16.91
2023-02-23T14:43:41.648Z,16.78
2023-02-23T14:47:27.784Z,16.68
2023-02-23T14:50:49.818Z,16.57
2023-02-23T14:54:16.705Z,16.45
2023-02-23T14:57:41.073Z,16.33
2023-02-23T15:01:02.967Z,16.19
2023-02-23T15:04:27.684Z,16.02
2023-02-23T15:07:51.986Z,15.88
2023-02-23T15:11:14.734Z,15.76
2023-02-23T15:14:39.002Z,15.65
2023-02-23T15:18:03.337Z,15.54
2023-02-23T15:21:25.250Z,15.42
2023-02-23T15:24:50.238Z,15.30
2023-02-23T15:28:23.488Z,15.16
2023-02-23T15:31:55.302Z,15.01
2023-02-23T15:35:17.590Z,14.86
2023-02-23T15:38:50.945Z,14.72
2023-02-23T15:42:21.495Z,14.58
2023-02-23T15:45:50.330Z,14.46
2023-02-23T15:49:14.695Z,14.30
2023-02-23T15:52:45.312Z,14.10
2023-02-23T15:56:20.824Z,13.96
2023-02-23T15:59:49.225Z,13.81
2023-02-23T16:03:31.317Z,13.69
2023-02-23T16:07:07.270Z,13.55
2023-02-23T16:10:29.570Z,13.39
2023-02-23T16:14:24.140Z,13.19
2023-02-23T16:17:48.233Z,12.97
2023-02-23T16:21:44.586Z,12.79
2023-02-23T16:25:11.375Z,12.61
2023-02-23T16:28:34.304Z,12.46
2023-02-23T16:32:00.633Z,12.36
2023-02-23T16:35:22.769Z,12.25
2023-02-23T16:42:43.584Z,12.05
2023-02-23T16:46:05.653Z,11.95
2023-02-23T16:49:29.966Z,11.85
2023-02-23T16:52:55.273Z,11.75
2023-02-23T16:56:21.036Z,11.65
2023-02-23T16:59:43.133Z,11.55
2023-02-23T17:03:15.610Z,11.45
2023-02-23T17:06:38.334Z,11.37
2023-02-23T17:10:00.444Z,11.31
2023-02-23T17:13:24.706Z,11.29
2023-02-23T17:16:46.677Z,11.25
2023-02-23T17:20:15.662Z,11.17
2023-02-23T17:23:51.269Z,11.08
2023-02-23T17:27:13.198Z,11.04
2023-02-23T17:30:36.842Z,11.01
2023-02-23T17:33:59.328Z,10.93
2023-02-23T17:37:37.581Z,10.87
2023-02-23T17:41:03.826Z,10.79
2023-02-23T17:44:34.280Z,10.74
2023-02-23T17:48:05.010Z,10.71
2023-02-23T17:51:26.889Z,10.69
2023-02-23T17:54:48.889Z,10.61
2023-02-23T17:58:10.899Z,10.54
2023-02-23T18:01:32.856Z,10.52
2023-02-23T18:04:54.989Z,10.48
2023-02-23T18:08:20.266Z,10.43
2023-02-23T18:11:42.248Z,10.39
2023-02-23T18:15:04.610Z,10.35
2023-02-23T18:18:26.898Z,10.28
2023-02-23T18:21:48.741Z,10.20
2023-02-23T18:25:20.902Z,10.16
2023-02-23T18:28:44.864Z,10.17
2023-02-23T18:32:10.800Z,10.14
2023-02-23T18:35:38.417Z,10.10
2023-02-23T18:39:01.274Z,10.13
2023-02-23T18:42:23.224Z,10.09
2023-02-23T18:45:45.068Z,10.04
2023-02-23T18:49:07.262Z,10.01
2023-02-23T18:52:29.259Z,10.03
2023-02-23T18:55:51.138Z,10.06
2023-02-23T18:59:13.462Z,10.06
2023-02-23T19:02:35.320Z,10.07
2023-02-23T19:06:12.757Z,10.04
2023-02-23T19:09:40.967Z,9.96
2023-02-23T19:13:02.871Z,9.93
2023-02-23T19:16:31.734Z,9.86
2023-02-23T19:20:00.938Z,9.82
2023-02-23T19:23:22.996Z,9.74
2023-02-23T19:26:54.442Z,9.63
2023-02-23T19:30:16.513Z,9.59
2023-02-23T19:33:38.584Z,9.57
2023-02-23T19:37:00.428Z,9.57
2023-02-23T19:40:24.049Z,9.56
2023-02-23T19:43:45.957Z,9.55
2023-02-23T19:47:09.632Z,9.66
2023-02-23T19:50:35.915Z,9.80
2023-02-23T19:53:59.214Z,9.92
2023-02-23T19:57:21.262Z,10.02
2023-02-23T20:00:43.192Z,10.09
2023-02-23T20:04:10.891Z,10.14
2023-02-23T20:07:32.917Z,10.19
2023-02-23T20:11:06.113Z,10.23
2023-02-23T20:14:32.684Z,10.25
2023-02-23T20:17:54.608Z,10.27
2023-02-23T20:21:21.510Z,10.29
2023-02-23T20:24:49.021Z,10.30
2023-02-23T20:28:11.025Z,10.32
2023-02-23T20:31:35.469Z,10.31
2023-02-23T20:35:03.522Z,10.31
2023-02-23T20:38:25.495Z,10.31
2023-02-23T20:42:04.201Z,10.31
2023-02-23T20:45:29.747Z,10.31
2023-02-23T20:48:56.834Z,10.30
2023-02-23T20:52:18.824Z,10.28
2023-02-23T20:55:47.372Z,10.27
2023-02-23T20:59:11.340Z,10.26
2023-02-23T21:02:33.186Z,10.25
2023-02-23T21:05:55.053Z,10.24
2023-02-23T21:09:23.007Z,10.24
2023-02-23T21:12:47.205Z,10.23
2023-02-23T21:16:32.387Z,10.22
2023-02-23T21:19:54.481Z,10.20
2023-02-23T21:23:17.931Z,10.19
2023-02-23T21:26:40.013Z,10.25
2023-02-23T21:30:02.589Z,10.31
2023-02-23T21:33:26.597Z,10.32
2023-02-23T21:36:51.424Z,10.30
2023-02-23T21:40:19.336Z,10.28
2023-02-23T21:43:43.055Z,10.25
2023-02-23T21:47:07.195Z,10.22
2023-02-23T21:50:32.109Z,10.21
2023-02-23T21:53:58.055Z,10.18
2023-02-23T21:57:22.980Z,10.16
2023-02-23T22:00:46.094Z,10.15
2023-02-23T22:04:10.761Z,10.13
2023-02-23T22:07:32.785Z,10.12
2023-02-23T22:10:54.633Z,10.10
2023-02-23T22:14:18.296Z,10.08
2023-02-23T22:17:40.353Z,10.06
2023-02-23T22:21:05.547Z,10.05
2023-02-23T22:24:27.721Z,10.04
2023-02-23T22:27:49.572Z,10.02
2023-02-23T22:31:13.711Z,10.01
2023-02-23T22:34:35.834Z,10.00
2023-02-23T22:38:00.437Z,9.99
2023-02-23T22:41:22.417Z,9.98
2023-02-23T22:44:44.487Z,9.98
2023-02-23T22:48:09.482Z,9.97
2023-02-23T22:51:35.112Z,9.98
2023-02-23T22:55:29.346Z,9.96
2023-02-23T22:58:55.941Z,9.94
2023-02-23T23:02:17.908Z,9.93
2023-02-23T23:05:39.716Z,9.93
2023-02-23T23:09:01.546Z,9.92
2023-02-23T23:12:27.921Z,9.90
2023-02-23T23:15:51.738Z,9.90
2023-02-23T23:19:24.038Z,9.90
2023-02-23T23:22:47.196Z,9.89
2023-02-23T23:26:14.881Z,9.88
2023-02-23T23:29:42.023Z,9.88
2023-02-23T23:33:03.954Z,9.87
2023-02-23T23:36:32.203Z,9.87
2023-02-23T23:39:59.396Z,9.86
2023-02-23T23:43:22.971Z,9.86
2023-02-23T23:46:45.857Z,9.85
2023-02-23T23:50:10.927Z,9.86
2023-02-23T23:54:26.210Z,9.86
2023-02-23T23:57:50.133Z,9.87
